sensor_id;sensor_type;location;lat;lon;timestamp;P1;durP1;ratioP1;P2;durP2;ratioP2
12892;SDS011;6514;48.606;9.222;2022-09-09T00:01:03;2.00;;;1.10;;
12892;SDS011;6514;48.606;9.222;2022-09-09T00:03:37;3.57;;;1.10;;
12892;SDS011;6514;48.606;9.222;2022-09-09T00:06:12;3.77;;;1.27;;
12892;SDS011;6514;48.606;9.222;2022-09-09T00:08:45;2.87;;;1.10;;
12892;SDS011;6514;48.606;9.222;2022-09-09T00:11:21;2.53;;;1.20;;
12892;SDS011;6514;48.606;9.222;2022-09-09T00:13:54;3.37;;;1.00;;
12892;SDS011;6514;48.606;9.222;2022-09-09T00:16:25;3.37;;;1.10;;
12892;SDS011;6514;48.606;9.222;2022-09-09T00:18:57;2.10;;;1.00;;
12892;SDS011;6514;48.606;9.222;2022-09-09T00:21:30;2.97;;;1.33;;
12892;SDS011;6514;48.606;9.222;2022-09-09T00:24:01;4.00;;;0.90;;
12892;SDS011;6514;48.606;9.222;2022-09-09T00:26:40;2.73;;;0.93;;
12892;SDS011;6514;48.606;9.222;2022-09-09T00:29:14;1.97;;;1.07;;
12892;SDS011;6514;48.606;9.222;2022-09-09T00:31:48;1.80;;;1.00;;
12892;SDS011;6514;48.606;9.222;2022-09-09T00:34:18;2.43;;;0.97;;
12892;SDS011;6514;48.606;9.222;2022-09-09T00:36:47;2.57;;;1.07;;
12892;SDS011;6514;48.606;9.222;2022-09-09T00:39:20;3.10;;;1.20;;
12892;SDS011;6514;48.606;9.222;2022-09-09T00:41:57;2.43;;;1.10;;
12892;SDS011;6514;48.606;9.222;2022-09-09T00:44:42;2.20;;;1.03;;
12892;SDS011;6514;48.606;9.222;2022-09-09T00:47:26;1.57;;;0.97;;
12892;SDS011;6514;48.606;9.222;2022-09-09T00:50:15;3.13;;;0.90;;
12892;SDS011;6514;48.606;9.222;2022-09-09T00:52:54;2.77;;;0.97;;
12892;SDS011;6514;48.606;9.222;2022-09-09T00:55:31;1.90;;;1.07;;
12892;SDS011;6514;48.606;9.222;2022-09-09T00:58:06;2.50;;;1.27;;
12892;SDS011;6514;48.606;9.222;2022-09-09T01:00:38;3.27;;;1.00;;
12892;SDS011;6514;48.606;9.222;2022-09-09T01:03:19;3.07;;;1.20;;
12892;SDS011;6514;48.606;9.222;2022-09-09T01:05:51;4.43;;;1.10;;
12892;SDS011;6514;48.606;9.222;2022-09-09T01:08:41;1.83;;;1.23;;
12892;SDS011;6514;48.606;9.222;2022-09-09T01:11:20;5.60;;;0.97;;
12892;SDS011;6514;48.606;9.222;2022-09-09T01:13:52;3.37;;;0.97;;
12892;SDS011;6514;48.606;9.222;2022-09-09T01:16:27;1.53;;;0.97;;
12892;SDS011;6514;48.606;9.222;2022-09-09T01:18:56;3.90;;;0.80;;
12892;SDS011;6514;48.606;9.222;2022-09-09T01:21:26;1.43;;;1.00;;
12892;SDS011;6514;48.606;9.222;2022-09-09T01:24:13;3.43;;;1.40;;
12892;SDS011;6514;48.606;9.222;2022-09-09T01:26:49;2.70;;;1.10;;
12892;SDS011;6514;48.606;9.222;2022-09-09T01:29:21;3.43;;;1.03;;
12892;SDS011;6514;48.606;9.222;2022-09-09T01:31:52;3.43;;;1.17;;
12892;SDS011;6514;48.606;9.222;2022-09-09T01:34:21;2.17;;;0.87;;
12892;SDS011;6514;48.606;9.222;2022-09-09T01:36:49;5.37;;;1.10;;
12892;SDS011;6514;48.606;9.222;2022-09-09T01:39:23;3.23;;;1.00;;
12892;SDS011;6514;48.606;9.222;2022-09-09T01:41:51;4.07;;;1.20;;
12892;SDS011;6514;48.606;9.222;2022-09-09T01:44:19;2.50;;;1.00;;
12892;SDS011;6514;48.606;9.222;2022-09-09T01:46:46;3.63;;;1.13;;
12892;SDS011;6514;48.606;9.222;2022-09-09T01:49:13;4.63;;;1.30;;
12892;SDS011;6514;48.606;9.222;2022-09-09T01:51:41;2.77;;;1.13;;
12892;SDS011;6514;48.606;9.222;2022-09-09T01:54:10;4.67;;;1.00;;
12892;SDS011;6514;48.606;9.222;2022-09-09T01:56:40;3.03;;;1.13;;
12892;SDS011;6514;48.606;9.222;2022-09-09T01:59:27;1.80;;;1.23;;
12892;SDS011;6514;48.606;9.222;2022-09-09T02:02:13;2.80;;;0.97;;
12892;SDS011;6514;48.606;9.222;2022-09-09T02:04:45;4.30;;;1.40;;
12892;SDS011;6514;48.606;9.222;2022-09-09T02:07:21;4.00;;;1.10;;
12892;SDS011;6514;48.606;9.222;2022-09-09T02:09:57;1.87;;;0.93;;
12892;SDS011;6514;48.606;9.222;2022-09-09T02:12:31;3.40;;;1.00;;
12892;SDS011;6514;48.606;9.222;2022-09-09T02:15:00;2.60;;;1.03;;
12892;SDS011;6514;48.606;9.222;2022-09-09T02:17:31;2.93;;;1.20;;
12892;SDS011;6514;48.606;9.222;2022-09-09T02:20:03;4.47;;;1.27;;
12892;SDS011;6514;48.606;9.222;2022-09-09T02:22:33;3.67;;;1.20;;
12892;SDS011;6514;48.606;9.222;2022-09-09T02:25:05;5.40;;;1.67;;
12892;SDS011;6514;48.606;9.222;2022-09-09T02:27:35;5.40;;;1.30;;
12892;SDS011;6514;48.606;9.222;2022-09-09T02:30:03;3.53;;;0.93;;
12892;SDS011;6514;48.606;9.222;2022-09-09T02:32:32;3.03;;;1.10;;
12892;SDS011;6514;48.606;9.222;2022-09-09T02:35:02;4.33;;;1.17;;
12892;SDS011;6514;48.606;9.222;2022-09-09T02:37:35;3.43;;;1.10;;
12892;SDS011;6514;48.606;9.222;2022-09-09T02:40:04;4.83;;;1.23;;
12892;SDS011;6514;48.606;9.222;2022-09-09T02:42:34;3.10;;;1.30;;
12892;SDS011;6514;48.606;9.222;2022-09-09T02:45:07;4.03;;;1.60;;
12892;SDS011;6514;48.606;9.222;2022-09-09T02:47:35;2.30;;;1.50;;
12892;SDS011;6514;48.606;9.222;2022-09-09T02:50:07;2.80;;;1.50;;
12892;SDS011;6514;48.606;9.222;2022-09-09T02:52:41;5.80;;;1.60;;
12892;SDS011;6514;48.606;9.222;2022-09-09T02:55:17;3.87;;;1.60;;
12892;SDS011;6514;48.606;9.222;2022-09-09T02:57:50;2.70;;;1.47;;
12892;SDS011;6514;48.606;9.222;2022-09-09T03:00:23;4.23;;;2.07;;
12892;SDS011;6514;48.606;9.222;2022-09-09T03:02:50;4.27;;;1.50;;
12892;SDS011;6514;48.606;9.222;2022-09-09T03:05:19;4.83;;;1.70;;
12892;SDS011;6514;48.606;9.222;2022-09-09T03:07:46;2.87;;;1.60;;
12892;SDS011;6514;48.606;9.222;2022-09-09T03:10:14;6.03;;;1.50;;
12892;SDS011;6514;48.606;9.222;2022-09-09T03:12:42;3.40;;;1.43;;
12892;SDS011;6514;48.606;9.222;2022-09-09T03:15:09;2.03;;;1.17;;
12892;SDS011;6514;48.606;9.222;2022-09-09T03:17:37;3.13;;;1.30;;
12892;SDS011;6514;48.606;9.222;2022-09-09T03:20:05;2.73;;;1.40;;
12892;SDS011;6514;48.606;9.222;2022-09-09T03:22:33;2.17;;;1.30;;
12892;SDS011;6514;48.606;9.222;2022-09-09T03:25:00;5.40;;;1.43;;
12892;SDS011;6514;48.606;9.222;2022-09-09T03:27:28;4.57;;;1.90;;
12892;SDS011;6514;48.606;9.222;2022-09-09T03:29:55;4.30;;;1.70;;
12892;SDS011;6514;48.606;9.222;2022-09-09T03:32:22;3.07;;;1.50;;
12892;SDS011;6514;48.606;9.222;2022-09-09T03:34:52;4.00;;;1.33;;
12892;SDS011;6514;48.606;9.222;2022-09-09T03:37:19;4.53;;;1.53;;
12892;SDS011;6514;48.606;9.222;2022-09-09T03:39:46;6.27;;;1.60;;
12892;SDS011;6514;48.606;9.222;2022-09-09T03:42:13;2.90;;;1.40;;
12892;SDS011;6514;48.606;9.222;2022-09-09T03:44:43;4.90;;;1.50;;
12892;SDS011;6514;48.606;9.222;2022-09-09T03:47:15;7.97;;;1.47;;
12892;SDS011;6514;48.606;9.222;2022-09-09T03:49:43;5.20;;;1.60;;
12892;SDS011;6514;48.606;9.222;2022-09-09T03:52:11;2.83;;;1.23;;
12892;SDS011;6514;48.606;9.222;2022-09-09T03:54:38;4.97;;;1.33;;
12892;SDS011;6514;48.606;9.222;2022-09-09T03:57:07;3.63;;;1.60;;
12892;SDS011;6514;48.606;9.222;2022-09-09T03:59:34;4.47;;;1.57;;
12892;SDS011;6514;48.606;9.222;2022-09-09T04:02:01;4.77;;;1.87;;
12892;SDS011;6514;48.606;9.222;2022-09-09T04:04:28;4.40;;;1.53;;
12892;SDS011;6514;48.606;9.222;2022-09-09T04:06:55;3.50;;;1.60;;
12892;SDS011;6514;48.606;9.222;2022-09-09T04:09:24;3.97;;;1.43;;
12892;SDS011;6514;48.606;9.222;2022-09-09T04:11:51;4.20;;;1.60;;
12892;SDS011;6514;48.606;9.222;2022-09-09T04:14:18;3.93;;;1.40;;
12892;SDS011;6514;48.606;9.222;2022-09-09T04:16:45;5.03;;;1.60;;
12892;SDS011;6514;48.606;9.222;2022-09-09T04:19:12;3.40;;;1.43;;
12892;SDS011;6514;48.606;9.222;2022-09-09T04:21:40;2.93;;;1.30;;
12892;SDS011;6514;48.606;9.222;2022-09-09T04:24:07;3.70;;;1.50;;
12892;SDS011;6514;48.606;9.222;2022-09-09T04:26:36;7.13;;;1.70;;
12892;SDS011;6514;48.606;9.222;2022-09-09T04:29:03;2.57;;;1.67;;
12892;SDS011;6514;48.606;9.222;2022-09-09T04:31:32;2.80;;;1.73;;
12892;SDS011;6514;48.606;9.222;2022-09-09T04:34:00;7.63;;;2.17;;
12892;SDS011;6514;48.606;9.222;2022-09-09T04:36:30;2.63;;;1.53;;
12892;SDS011;6514;48.606;9.222;2022-09-09T04:41:25;3.83;;;1.60;;
12892;SDS011;6514;48.606;9.222;2022-09-09T04:43:54;4.07;;;1.50;;
12892;SDS011;6514;48.606;9.222;2022-09-09T04:46:21;3.23;;;1.20;;
12892;SDS011;6514;48.606;9.222;2022-09-09T04:48:48;3.07;;;1.17;;
12892;SDS011;6514;48.606;9.222;2022-09-09T04:51:16;3.33;;;1.43;;
12892;SDS011;6514;48.606;9.222;2022-09-09T04:53:43;3.13;;;1.20;;
12892;SDS011;6514;48.606;9.222;2022-09-09T04:56:12;3.33;;;1.50;;
12892;SDS011;6514;48.606;9.222;2022-09-09T04:58:40;3.30;;;1.40;;
12892;SDS011;6514;48.606;9.222;2022-09-09T05:01:09;3.50;;;1.20;;
12892;SDS011;6514;48.606;9.222;2022-09-09T05:03:38;3.23;;;1.03;;
12892;SDS011;6514;48.606;9.222;2022-09-09T05:06:06;6.13;;;1.50;;
12892;SDS011;6514;48.606;9.222;2022-09-09T05:08:34;2.20;;;1.60;;
12892;SDS011;6514;48.606;9.222;2022-09-09T05:11:02;2.43;;;1.40;;
12892;SDS011;6514;48.606;9.222;2022-09-09T05:13:29;4.10;;;1.60;;
12892;SDS011;6514;48.606;9.222;2022-09-09T05:15:57;2.90;;;1.20;;
12892;SDS011;6514;48.606;9.222;2022-09-09T05:18:26;2.50;;;1.23;;
12892;SDS011;6514;48.606;9.222;2022-09-09T05:20:58;4.20;;;1.40;;
12892;SDS011;6514;48.606;9.222;2022-09-09T05:23:25;3.67;;;1.50;;
12892;SDS011;6514;48.606;9.222;2022-09-09T05:25:55;3.93;;;1.60;;
12892;SDS011;6514;48.606;9.222;2022-09-09T05:28:23;4.47;;;1.37;;
12892;SDS011;6514;48.606;9.222;2022-09-09T05:30:57;4.10;;;1.20;;
12892;SDS011;6514;48.606;9.222;2022-09-09T05:33:27;3.67;;;1.30;;
12892;SDS011;6514;48.606;9.222;2022-09-09T05:35:55;4.43;;;1.30;;
12892;SDS011;6514;48.606;9.222;2022-09-09T05:38:23;1.67;;;1.07;;
12892;SDS011;6514;48.606;9.222;2022-09-09T05:40:50;2.43;;;1.10;;
12892;SDS011;6514;48.606;9.222;2022-09-09T05:43:18;2.97;;;1.20;;
12892;SDS011;6514;48.606;9.222;2022-09-09T05:45:46;4.17;;;1.50;;
12892;SDS011;6514;48.606;9.222;2022-09-09T05:48:13;2.33;;;1.20;;
12892;SDS011;6514;48.606;9.222;2022-09-09T05:50:42;4.23;;;1.43;;
12892;SDS011;6514;48.606;9.222;2022-09-09T05:53:10;4.30;;;1.57;;
12892;SDS011;6514;48.606;9.222;2022-09-09T05:55:37;3.43;;;1.30;;
12892;SDS011;6514;48.606;9.222;2022-09-09T05:58:04;2.80;;;1.10;;
12892;SDS011;6514;48.606;9.222;2022-09-09T06:00:31;3.93;;;1.20;;
12892;SDS011;6514;48.606;9.222;2022-09-09T06:02:58;4.67;;;1.63;;
12892;SDS011;6514;48.606;9.222;2022-09-09T06:05:25;3.30;;;1.47;;
12892;SDS011;6514;48.606;9.222;2022-09-09T06:07:55;4.83;;;1.47;;
12892;SDS011;6514;48.606;9.222;2022-09-09T06:10:21;3.20;;;1.50;;
12892;SDS011;6514;48.606;9.222;2022-09-09T06:12:48;3.50;;;1.60;;
12892;SDS011;6514;48.606;9.222;2022-09-09T06:15:19;4.00;;;1.40;;
12892;SDS011;6514;48.606;9.222;2022-09-09T06:17:46;5.13;;;1.80;;
12892;SDS011;6514;48.606;9.222;2022-09-09T06:20:14;3.53;;;1.40;;
12892;SDS011;6514;48.606;9.222;2022-09-09T06:22:41;3.40;;;1.30;;
12892;SDS011;6514;48.606;9.222;2022-09-09T06:25:13;3.37;;;1.47;;
12892;SDS011;6514;48.606;9.222;2022-09-09T06:27:40;3.33;;;1.50;;
12892;SDS011;6514;48.606;9.222;2022-09-09T06:30:08;2.07;;;1.47;;
12892;SDS011;6514;48.606;9.222;2022-09-09T06:32:36;3.70;;;1.43;;
12892;SDS011;6514;48.606;9.222;2022-09-09T06:35:03;3.33;;;1.50;;
12892;SDS011;6514;48.606;9.222;2022-09-09T06:37:30;3.20;;;1.37;;
12892;SDS011;6514;48.606;9.222;2022-09-09T06:39:57;3.23;;;1.20;;
12892;SDS011;6514;48.606;9.222;2022-09-09T06:42:26;2.40;;;1.20;;
12892;SDS011;6514;48.606;9.222;2022-09-09T06:44:52;2.37;;;1.00;;
12892;SDS011;6514;48.606;9.222;2022-09-09T06:47:19;3.00;;;1.23;;
12892;SDS011;6514;48.606;9.222;2022-09-09T06:49:46;5.43;;;1.50;;
12892;SDS011;6514;48.606;9.222;2022-09-09T06:52:13;3.67;;;1.30;;
12892;SDS011;6514;48.606;9.222;2022-09-09T06:54:40;4.23;;;1.20;;
12892;SDS011;6514;48.606;9.222;2022-09-09T06:57:07;2.27;;;1.00;;
12892;SDS011;6514;48.606;9.222;2022-09-09T06:59:35;2.77;;;1.30;;
12892;SDS011;6514;48.606;9.222;2022-09-09T07:02:02;2.50;;;0.93;;
12892;SDS011;6514;48.606;9.222;2022-09-09T07:04:29;3.33;;;1.00;;
12892;SDS011;6514;48.606;9.222;2022-09-09T07:06:56;2.53;;;1.10;;
12892;SDS011;6514;48.606;9.222;2022-09-09T07:09:23;5.83;;;1.30;;
12892;SDS011;6514;48.606;9.222;2022-09-09T07:11:52;3.17;;;1.13;;
12892;SDS011;6514;48.606;9.222;2022-09-09T07:14:19;3.97;;;1.07;;
12892;SDS011;6514;48.606;9.222;2022-09-09T07:16:48;2.13;;;0.80;;
12892;SDS011;6514;48.606;9.222;2022-09-09T07:19:15;2.30;;;1.00;;
12892;SDS011;6514;48.606;9.222;2022-09-09T07:21:42;4.93;;;1.33;;
12892;SDS011;6514;48.606;9.222;2022-09-09T07:24:09;4.53;;;1.10;;
12892;SDS011;6514;48.606;9.222;2022-09-09T07:26:37;2.23;;;0.90;;
12892;SDS011;6514;48.606;9.222;2022-09-09T07:29:05;3.23;;;1.27;;
12892;SDS011;6514;48.606;9.222;2022-09-09T07:31:33;3.17;;;1.07;;
12892;SDS011;6514;48.606;9.222;2022-09-09T07:34:03;3.33;;;1.10;;
12892;SDS011;6514;48.606;9.222;2022-09-09T07:36:31;3.13;;;1.00;;
12892;SDS011;6514;48.606;9.222;2022-09-09T07:39:00;2.23;;;1.00;;
12892;SDS011;6514;48.606;9.222;2022-09-09T07:41:29;1.57;;;1.00;;
12892;SDS011;6514;48.606;9.222;2022-09-09T07:43:59;2.30;;;0.87;;
12892;SDS011;6514;48.606;9.222;2022-09-09T07:46:30;4.53;;;1.00;;
12892;SDS011;6514;48.606;9.222;2022-09-09T07:48:57;2.47;;;0.97;;
12892;SDS011;6514;48.606;9.222;2022-09-09T07:51:25;2.33;;;0.90;;
12892;SDS011;6514;48.606;9.222;2022-09-09T07:53:56;2.60;;;1.17;;
12892;SDS011;6514;48.606;9.222;2022-09-09T07:56:25;3.13;;;1.10;;
12892;SDS011;6514;48.606;9.222;2022-09-09T07:58:53;4.10;;;1.13;;
12892;SDS011;6514;48.606;9.222;2022-09-09T08:01:22;2.80;;;1.20;;
12892;SDS011;6514;48.606;9.222;2022-09-09T08:03:55;2.93;;;1.30;;
12892;SDS011;6514;48.606;9.222;2022-09-09T08:06:26;1.87;;;1.00;;
12892;SDS011;6514;48.606;9.222;2022-09-09T08:08:53;5.40;;;1.00;;
12892;SDS011;6514;48.606;9.222;2022-09-09T08:11:21;3.07;;;0.90;;
12892;SDS011;6514;48.606;9.222;2022-09-09T08:13:49;4.63;;;0.90;;
12892;SDS011;6514;48.606;9.222;2022-09-09T08:16:18;5.57;;;1.30;;
12892;SDS011;6514;48.606;9.222;2022-09-09T08:18:47;3.77;;;1.00;;
12892;SDS011;6514;48.606;9.222;2022-09-09T08:21:16;2.80;;;1.00;;
12892;SDS011;6514;48.606;9.222;2022-09-09T08:23:45;2.60;;;0.77;;
12892;SDS011;6514;48.606;9.222;2022-09-09T08:26:14;4.50;;;1.00;;
12892;SDS011;6514;48.606;9.222;2022-09-09T08:28:42;2.20;;;1.23;;
12892;SDS011;6514;48.606;9.222;2022-09-09T08:31:10;3.83;;;1.10;;
12892;SDS011;6514;48.606;9.222;2022-09-09T08:33:39;2.37;;;0.77;;
12892;SDS011;6514;48.606;9.222;2022-09-09T08:36:08;1.93;;;0.97;;
12892;SDS011;6514;48.606;9.222;2022-09-09T08:38:36;4.70;;;1.33;;
12892;SDS011;6514;48.606;9.222;2022-09-09T08:41:10;3.97;;;1.20;;
12892;SDS011;6514;48.606;9.222;2022-09-09T08:43:46;3.27;;;0.90;;
12892;SDS011;6514;48.606;9.222;2022-09-09T08:46:15;3.10;;;1.23;;
12892;SDS011;6514;48.606;9.222;2022-09-09T08:48:51;4.93;;;1.10;;
12892;SDS011;6514;48.606;9.222;2022-09-09T08:51:24;1.77;;;0.90;;
12892;SDS011;6514;48.606;9.222;2022-09-09T08:53:54;4.40;;;1.00;;
12892;SDS011;6514;48.606;9.222;2022-09-09T08:56:26;3.17;;;1.20;;
12892;SDS011;6514;48.606;9.222;2022-09-09T08:58:55;7.80;;;1.10;;
12892;SDS011;6514;48.606;9.222;2022-09-09T09:01:29;2.90;;;0.90;;
12892;SDS011;6514;48.606;9.222;2022-09-09T09:04:06;3.90;;;1.17;;
12892;SDS011;6514;48.606;9.222;2022-09-09T09:06:45;2.23;;;1.00;;
12892;SDS011;6514;48.606;9.222;2022-09-09T09:09:21;2.80;;;0.87;;
12892;SDS011;6514;48.606;9.222;2022-09-09T09:11:55;3.93;;;1.13;;
12892;SDS011;6514;48.606;9.222;2022-09-09T09:14:26;2.73;;;1.03;;
12892;SDS011;6514;48.606;9.222;2022-09-09T09:16:57;3.83;;;1.27;;
12892;SDS011;6514;48.606;9.222;2022-09-09T09:19:26;5.00;;;1.13;;
12892;SDS011;6514;48.606;9.222;2022-09-09T09:21:57;4.23;;;1.10;;
12892;SDS011;6514;48.606;9.222;2022-09-09T09:24:32;3.47;;;1.10;;
12892;SDS011;6514;48.606;9.222;2022-09-09T09:27:10;2.77;;;0.90;;
12892;SDS011;6514;48.606;9.222;2022-09-09T09:29:39;2.60;;;0.80;;
12892;SDS011;6514;48.606;9.222;2022-09-09T09:32:10;4.23;;;0.80;;
12892;SDS011;6514;48.606;9.222;2022-09-09T09:34:42;4.47;;;1.00;;
12892;SDS011;6514;48.606;9.222;2022-09-09T09:37:15;2.00;;;0.70;;
12892;SDS011;6514;48.606;9.222;2022-09-09T09:39:49;4.03;;;1.10;;
12892;SDS011;6514;48.606;9.222;2022-09-09T09:42:18;3.67;;;1.07;;
12892;SDS011;6514;48.606;9.222;2022-09-09T09:44:45;1.70;;;0.70;;
12892;SDS011;6514;48.606;9.222;2022-09-09T09:47:13;3.80;;;1.00;;
12892;SDS011;6514;48.606;9.222;2022-09-09T09:49:50;3.87;;;1.07;;
12892;SDS011;6514;48.606;9.222;2022-09-09T09:52:20;2.60;;;1.00;;
12892;SDS011;6514;48.606;9.222;2022-09-09T09:54:49;1.93;;;0.70;;
12892;SDS011;6514;48.606;9.222;2022-09-09T09:57:22;2.93;;;0.80;;
12892;SDS011;6514;48.606;9.222;2022-09-09T10:00:00;2.73;;;0.70;;
12892;SDS011;6514;48.606;9.222;2022-09-09T10:02:31;3.80;;;0.80;;
12892;SDS011;6514;48.606;9.222;2022-09-09T10:05:08;3.50;;;0.60;;
12892;SDS011;6514;48.606;9.222;2022-09-09T10:07:40;3.83;;;0.70;;
12892;SDS011;6514;48.606;9.222;2022-09-09T10:10:09;2.90;;;0.90;;
12892;SDS011;6514;48.606;9.222;2022-09-09T10:12:45;2.70;;;0.70;;
12892;SDS011;6514;48.606;9.222;2022-09-09T10:15:33;4.43;;;1.17;;
12892;SDS011;6514;48.606;9.222;2022-09-09T10:18:08;4.97;;;1.00;;
12892;SDS011;6514;48.606;9.222;2022-09-09T10:20:51;2.30;;;0.93;;
12892;SDS011;6514;48.606;9.222;2022-09-09T10:23:29;2.53;;;0.70;;
12892;SDS011;6514;48.606;9.222;2022-09-09T10:26:13;3.80;;;0.80;;
12892;SDS011;6514;48.606;9.222;2022-09-09T10:29:01;6.60;;;1.63;;
12892;SDS011;6514;48.606;9.222;2022-09-09T10:31:43;3.63;;;1.00;;
12892;SDS011;6514;48.606;9.222;2022-09-09T10:34:23;3.13;;;0.87;;
12892;SDS011;6514;48.606;9.222;2022-09-09T10:37:04;2.90;;;0.83;;
12892;SDS011;6514;48.606;9.222;2022-09-09T10:39:47;3.33;;;0.90;;
12892;SDS011;6514;48.606;9.222;2022-09-09T10:42:23;3.73;;;1.00;;
12892;SDS011;6514;48.606;9.222;2022-09-09T10:44:59;4.10;;;0.93;;
12892;SDS011;6514;48.606;9.222;2022-09-09T10:47:39;2.63;;;0.67;;
12892;SDS011;6514;48.606;9.222;2022-09-09T10:50:28;2.07;;;0.90;;
12892;SDS011;6514;48.606;9.222;2022-09-09T10:53:08;2.80;;;0.93;;
12892;SDS011;6514;48.606;9.222;2022-09-09T10:55:44;2.30;;;0.80;;
12892;SDS011;6514;48.606;9.222;2022-09-09T10:58:17;2.47;;;0.80;;
12892;SDS011;6514;48.606;9.222;2022-09-09T11:00:52;3.00;;;0.93;;
12892;SDS011;6514;48.606;9.222;2022-09-09T11:03:23;2.27;;;0.60;;
12892;SDS011;6514;48.606;9.222;2022-09-09T11:05:53;2.20;;;0.77;;
12892;SDS011;6514;48.606;9.222;2022-09-09T11:08:24;1.43;;;0.80;;
12892;SDS011;6514;48.606;9.222;2022-09-09T11:10:54;2.13;;;0.87;;
12892;SDS011;6514;48.606;9.222;2022-09-09T11:13:30;3.20;;;0.77;;
12892;SDS011;6514;48.606;9.222;2022-09-09T11:16:13;3.77;;;0.67;;
12892;SDS011;6514;48.606;9.222;2022-09-09T11:18:47;2.77;;;0.60;;
12892;SDS011;6514;48.606;9.222;2022-09-09T11:21:16;3.10;;;0.63;;
12892;SDS011;6514;48.606;9.222;2022-09-09T11:23:48;1.40;;;0.60;;
12892;SDS011;6514;48.606;9.222;2022-09-09T11:26:22;2.07;;;0.77;;
12892;SDS011;6514;48.606;9.222;2022-09-09T11:29:01;4.80;;;1.00;;
12892;SDS011;6514;48.606;9.222;2022-09-09T11:31:44;3.40;;;0.83;;
12892;SDS011;6514;48.606;9.222;2022-09-09T11:34:16;3.60;;;0.80;;
12892;SDS011;6514;48.606;9.222;2022-09-09T11:37:00;2.10;;;0.63;;
12892;SDS011;6514;48.606;9.222;2022-09-09T11:39:47;3.60;;;1.23;;
12892;SDS011;6514;48.606;9.222;2022-09-09T11:42:42;2.50;;;1.00;;
12892;SDS011;6514;48.606;9.222;2022-09-09T11:45:10;3.63;;;0.73;;
12892;SDS011;6514;48.606;9.222;2022-09-09T11:47:52;2.10;;;0.90;;
12892;SDS011;6514;48.606;9.222;2022-09-09T11:55:59;3.07;;;0.70;;
12892;SDS011;6514;48.606;9.222;2022-09-09T11:58:28;2.77;;;0.70;;
12892;SDS011;6514;48.606;9.222;2022-09-09T12:01:12;1.97;;;0.40;;
12892;SDS011;6514;48.606;9.222;2022-09-09T12:03:54;2.07;;;0.70;;
12892;SDS011;6514;48.606;9.222;2022-09-09T12:06:32;1.77;;;0.37;;
12892;SDS011;6514;48.606;9.222;2022-09-09T12:09:08;1.80;;;0.67;;
12892;SDS011;6514;48.606;9.222;2022-09-09T12:11:41;1.87;;;0.57;;
12892;SDS011;6514;48.606;9.222;2022-09-09T12:14:18;1.93;;;0.90;;
12892;SDS011;6514;48.606;9.222;2022-09-09T12:16:47;1.40;;;0.50;;
12892;SDS011;6514;48.606;9.222;2022-09-09T12:19:17;2.03;;;0.60;;
12892;SDS011;6514;48.606;9.222;2022-09-09T12:21:48;1.00;;;0.40;;
12892;SDS011;6514;48.606;9.222;2022-09-09T12:24:25;0.63;;;0.30;;
12892;SDS011;6514;48.606;9.222;2022-09-09T12:26:58;1.60;;;0.53;;
12892;SDS011;6514;48.606;9.222;2022-09-09T12:29:43;1.57;;;0.40;;
12892;SDS011;6514;48.606;9.222;2022-09-09T12:32:16;1.97;;;0.67;;
12892;SDS011;6514;48.606;9.222;2022-09-09T12:34:49;1.60;;;0.57;;
12892;SDS011;6514;48.606;9.222;2022-09-09T12:37:23;1.40;;;0.57;;
12892;SDS011;6514;48.606;9.222;2022-09-09T12:39:55;2.60;;;0.60;;
12892;SDS011;6514;48.606;9.222;2022-09-09T12:42:24;2.30;;;0.70;;
12892;SDS011;6514;48.606;9.222;2022-09-09T12:44:56;2.07;;;0.80;;
12892;SDS011;6514;48.606;9.222;2022-09-09T12:47:26;2.57;;;0.73;;
12892;SDS011;6514;48.606;9.222;2022-09-09T12:50:01;2.50;;;0.77;;
12892;SDS011;6514;48.606;9.222;2022-09-09T12:52:30;1.23;;;0.60;;
12892;SDS011;6514;48.606;9.222;2022-09-09T12:54:59;2.23;;;0.80;;
12892;SDS011;6514;48.606;9.222;2022-09-09T12:57:30;2.37;;;0.70;;
12892;SDS011;6514;48.606;9.222;2022-09-09T13:00:05;2.77;;;1.00;;
12892;SDS011;6514;48.606;9.222;2022-09-09T13:02:36;2.90;;;0.70;;
12892;SDS011;6514;48.606;9.222;2022-09-09T13:05:15;2.37;;;0.50;;
12892;SDS011;6514;48.606;9.222;2022-09-09T13:07:44;1.73;;;0.60;;
12892;SDS011;6514;48.606;9.222;2022-09-09T13:10:12;2.40;;;0.70;;
12892;SDS011;6514;48.606;9.222;2022-09-09T13:12:41;2.17;;;0.50;;
12892;SDS011;6514;48.606;9.222;2022-09-09T13:15:14;2.67;;;0.60;;
12892;SDS011;6514;48.606;9.222;2022-09-09T13:17:51;2.37;;;0.67;;
12892;SDS011;6514;48.606;9.222;2022-09-09T13:20:21;2.53;;;0.60;;
12892;SDS011;6514;48.606;9.222;2022-09-09T13:22:50;2.17;;;0.60;;
12892;SDS011;6514;48.606;9.222;2022-09-09T13:25:20;1.37;;;0.57;;
12892;SDS011;6514;48.606;9.222;2022-09-09T13:27:55;3.17;;;0.80;;
12892;SDS011;6514;48.606;9.222;2022-09-09T13:30:25;4.00;;;0.87;;
12892;SDS011;6514;48.606;9.222;2022-09-09T13:33:04;2.80;;;0.73;;
12892;SDS011;6514;48.606;9.222;2022-09-09T13:35:46;3.17;;;0.70;;
12892;SDS011;6514;48.606;9.222;2022-09-09T13:38:15;2.50;;;0.80;;
12892;SDS011;6514;48.606;9.222;2022-09-09T13:40:51;1.57;;;0.80;;
12892;SDS011;6514;48.606;9.222;2022-09-09T13:43:20;3.27;;;0.87;;
12892;SDS011;6514;48.606;9.222;2022-09-09T13:45:52;1.20;;;0.63;;
12892;SDS011;6514;48.606;9.222;2022-09-09T13:48:21;1.33;;;0.60;;
12892;SDS011;6514;48.606;9.222;2022-09-09T13:50:54;1.47;;;0.53;;
12892;SDS011;6514;48.606;9.222;2022-09-09T13:53:25;2.67;;;0.73;;
12892;SDS011;6514;48.606;9.222;2022-09-09T13:55:53;1.27;;;0.50;;
12892;SDS011;6514;48.606;9.222;2022-09-09T13:58:21;2.63;;;0.60;;
12892;SDS011;6514;48.606;9.222;2022-09-09T14:00:50;2.37;;;0.60;;
12892;SDS011;6514;48.606;9.222;2022-09-09T14:03:17;1.43;;;0.60;;
12892;SDS011;6514;48.606;9.222;2022-09-09T14:05:44;2.77;;;0.70;;
12892;SDS011;6514;48.606;9.222;2022-09-09T14:08:16;3.50;;;0.60;;
12892;SDS011;6514;48.606;9.222;2022-09-09T14:10:47;3.27;;;0.57;;
12892;SDS011;6514;48.606;9.222;2022-09-09T14:13:14;1.53;;;0.60;;
12892;SDS011;6514;48.606;9.222;2022-09-09T14:15:41;1.90;;;0.50;;
12892;SDS011;6514;48.606;9.222;2022-09-09T14:18:09;1.90;;;0.40;;
12892;SDS011;6514;48.606;9.222;2022-09-09T14:20:38;2.50;;;0.60;;
12892;SDS011;6514;48.606;9.222;2022-09-09T14:23:05;3.07;;;0.77;;
12892;SDS011;6514;48.606;9.222;2022-09-09T14:25:37;1.30;;;0.80;;
12892;SDS011;6514;48.606;9.222;2022-09-09T14:28:07;1.07;;;0.40;;
12892;SDS011;6514;48.606;9.222;2022-09-09T14:30:36;1.97;;;0.47;;
12892;SDS011;6514;48.606;9.222;2022-09-09T14:33:04;2.57;;;0.60;;
12892;SDS011;6514;48.606;9.222;2022-09-09T14:35:32;2.10;;;0.70;;
12892;SDS011;6514;48.606;9.222;2022-09-09T14:37:59;1.63;;;0.70;;
12892;SDS011;6514;48.606;9.222;2022-09-09T14:40:27;1.47;;;0.60;;
12892;SDS011;6514;48.606;9.222;2022-09-09T14:42:56;1.80;;;0.60;;
12892;SDS011;6514;48.606;9.222;2022-09-09T14:45:23;1.65;;;0.70;;
12892;SDS011;6514;48.606;9.222;2022-09-09T14:47:51;2.73;;;0.50;;
12892;SDS011;6514;48.606;9.222;2022-09-09T14:50:18;1.47;;;0.67;;
12892;SDS011;6514;48.606;9.222;2022-09-09T14:52:45;1.40;;;0.50;;
12892;SDS011;6514;48.606;9.222;2022-09-09T14:55:12;1.27;;;0.60;;
12892;SDS011;6514;48.606;9.222;2022-09-09T14:57:40;4.80;;;0.70;;
12892;SDS011;6514;48.606;9.222;2022-09-09T15:00:09;1.10;;;0.40;;
12892;SDS011;6514;48.606;9.222;2022-09-09T15:02:37;2.47;;;0.70;;
12892;SDS011;6514;48.606;9.222;2022-09-09T15:05:04;0.70;;;0.50;;
12892;SDS011;6514;48.606;9.222;2022-09-09T15:07:32;2.47;;;0.80;;
12892;SDS011;6514;48.606;9.222;2022-09-09T15:09:59;1.57;;;0.60;;
12892;SDS011;6514;48.606;9.222;2022-09-09T15:12:26;2.67;;;0.60;;
12892;SDS011;6514;48.606;9.222;2022-09-09T15:14:54;1.87;;;0.60;;
12892;SDS011;6514;48.606;9.222;2022-09-09T15:17:22;1.70;;;0.70;;
12892;SDS011;6514;48.606;9.222;2022-09-09T15:19:52;3.23;;;0.87;;
12892;SDS011;6514;48.606;9.222;2022-09-09T15:22:20;1.17;;;0.50;;
12892;SDS011;6514;48.606;9.222;2022-09-09T15:24:47;2.47;;;0.50;;
12892;SDS011;6514;48.606;9.222;2022-09-09T15:27:14;1.37;;;0.53;;
12892;SDS011;6514;48.606;9.222;2022-09-09T15:29:40;3.03;;;0.60;;
12892;SDS011;6514;48.606;9.222;2022-09-09T15:32:08;3.10;;;0.80;;